Time;durP1;ratioP1;P1;durP2;ratioP2;P2;SDS_P1;SDS_P2;PMS_P1;PMS_P2;Temp;Humidity;BMP_temperature;BMP_pressure;BME280_temperature;BME280_humidity;BME280_pressure;Samples;Min_cycle;Max_cycle;Signal;HPM_P1;HPM_P2
2022/01/18 16:24:06;;;;;;;7.88;3.25;;;14.30;78.40;;;;;;2298833;62;30197;-70
2022/01/18 16:26:34;;;;;;;4.43;2.47;;;14.40;77.90;;;;;;2291133;62;30361;-72
2022/01/18 16:29:00;;;;;;;5.65;2.95;;;14.60;78.70;;;;;;2291198;62;30003;-70
2022/01/18 16:31:26;;;;;;;3.88;2.67;;;14.80;79.30;;;;;;2286778;62;30258;-72
2022/01/18 16:33:52;;;;;;;3.50;2.20;;;15.00;79.50;;;;;;2275814;62;30167;-71
2022/01/18 16:36:19;;;;;;;4.80;3.17;;;15.20;79.80;;;;;;2282866;62;30296;-71
2022/01/18 16:38:46;;;;;;;4.72;2.88;;;15.20;79.90;;;;;;2282738;62;30202;-73
2022/01/18 16:41:15;;;;;;;3.38;2.58;;;15.40;80.10;;;;;;2288102;62;30950;-75
2022/01/18 16:43:41;;;;;;;4.07;3.08;;;15.40;80.00;;;;;;2277199;62;30422;-75
2022/01/18 16:46:07;;;;;;;3.63;2.70;;;15.50;80.00;;;;;;2283533;62;30181;-69
2022/01/18 16:48:32;;;;;;;3.08;2.50;;;15.60;80.00;;;;;;2291134;62;30483;-70
2022/01/18 16:50:58;;;;;;;4.25;3.00;;;15.60;80.00;;;;;;2291108;62;31088;-70
2022/01/18 16:53:24;;;;;;;3.58;3.08;;;15.60;80.00;;;;;;2283357;62;30358;-70
2022/01/18 16:55:50;;;;;;;3.38;2.70;;;15.60;80.00;;;;;;2276998;62;30172;-70
2022/01/18 16:58:17;;;;;;;5.03;3.00;;;15.60;80.00;;;;;;2283892;62;30161;-69
2022/01/18 17:00:43;;;;;;;4.47;3.00;;;15.70;80.00;;;;;;2282982;62;30124;-70
2022/01/18 17:03:08;;;;;;;4.45;3.00;;;15.70;79.70;;;;;;2289006;62;31316;-70
2022/01/18 17:05:35;;;;;;;4.55;3.20;;;15.70;79.60;;;;;;2289513;62;30236;-70
2022/01/18 17:08:01;;;;;;;4.30;2.95;;;15.70;79.50;;;;;;2282296;62;30176;-70
2022/01/18 17:10:29;;;;;;;3.50;3.15;;;15.70;79.40;;;;;;2282162;62;30779;-70
2022/01/18 17:12:57;;;;;;;4.72;2.90;;;15.70;79.30;;;;;;2282721;62;30525;-69
2022/01/18 17:15:25;;;;;;;4.15;3.00;;;15.80;79.20;;;;;;2287362;62;30238;-70
2022/01/18 17:17:50;;;;;;;5.13;3.13;;;15.80;79.10;;;;;;2287924;62;30445;-70
2022/01/18 17:20:16;;;;;;;3.78;3.00;;;15.80;78.90;;;;;;2283119;62;30862;-71
2022/01/18 17:22:42;;;;;;;3.85;3.00;;;15.80;78.80;;;;;;2282181;62;31695;-70
2022/01/18 17:25:09;;;;;;;5.43;2.90;;;15.90;78.70;;;;;;2275414;62;30052;-70
2022/01/18 17:27:36;;;;;;;3.78;3.20;;;15.90;78.60;;;;;;2281928;62;30079;-70
2022/01/18 17:30:03;;;;;;;4.68;3.10;;;15.90;78.40;;;;;;2282702;62;30905;-70
2022/01/18 17:32:29;;;;;;;3.22;2.92;;;15.90;78.30;;;;;;2282667;62;30375;-71
2022/01/18 17:34:55;;;;;;;3.63;3.20;;;16.00;78.20;;;;;;2278407;62;30394;-70
2022/01/18 17:37:21;;;;;;;3.40;3.10;;;16.00;78.10;;;;;;2277140;62;31128;-70
2022/01/18 17:39:47;;;;;;;3.72;3.13;;;16.00;77.90;;;;;;2269785;62;30155;-70
2022/01/18 17:42:13;;;;;;;4.93;3.55;;;16.00;77.80;;;;;;2276032;62;30199;-70
2022/01/18 17:44:39;;;;;;;4.32;3.50;;;16.00;77.70;;;;;;2278952;62;30126;-71
2022/01/18 17:47:14;;;;;;;3.92;3.45;;;16.00;77.50;;;;;;2283034;62;29980;-70
2022/01/18 17:49:39;;;;;;;;;;;16.00;77.50;;;;;;2285435;62;30169;-70
2022/01/18 17:52:05;;;;;;;4.75;3.50;;;16.00;75.50;;;;;;2285511;62;30165;-71
2022/01/18 17:54:31;;;;;;;4.18;3.30;;;16.00;77.30;;;;;;2271105;62;30095;-70
2022/01/18 17:56:57;;;;;;;4.50;3.05;;;16.00;77.30;;;;;;2277417;62;30581;-70
2022/01/18 17:59:24;;;;;;;3.88;3.33;;;16.00;77.20;;;;;;2284392;62;30066;-69
2022/01/18 18:01:50;;;;;;;4.10;3.63;;;16.00;77.10;;;;;;2284475;62;30093;-69
2022/01/18 18:04:16;;;;;;;3.50;3.10;;;16.00;77.00;;;;;;2285051;62;30171;-69
2022/01/18 18:06:41;;;;;;;3.75;3.38;;;16.00;76.90;;;;;;2285076;62;30245;-71
2022/01/18 18:09:07;;;;;;;5.00;3.30;;;15.90;76.80;;;;;;2285326;62;30752;-71
2022/01/18 18:11:33;;;;;;;5.82;3.00;;;15.90;76.90;;;;;;2285066;62;30035;-69
2022/01/18 18:13:59;;;;;;;3.90;3.50;;;15.90;76.90;;;;;;2285230;62;30063;-70
2022/01/18 18:16:25;;;;;;;6.43;5.40;;;15.90;77.60;;;;;;2285304;62;30360;-70
2022/01/18 18:18:51;;;;;;;9.38;8.13;;;16.00;76.90;;;;;;2270873;62;30885;-71
2022/01/18 18:21:17;;;;;;;8.57;6.53;;;16.00;76.90;;;;;;2285197;62;30137;-69
2022/01/18 18:23:43;;;;;;;6.47;5.88;;;16.20;76.90;;;;;;2277508;62;30381;-69
2022/01/18 18:26:09;;;;;;;6.07;5.47;;;16.30;76.80;;;;;;2285139;62;30042;-70
2022/01/18 18:28:39;;;;;;;5.85;5.07;;;16.30;76.70;;;;;;2269095;62;30294;-69
2022/01/18 18:31:05;;;;;;;7.80;5.82;;;16.40;76.60;;;;;;2269213;62;30276;-69
2022/01/18 18:33:33;;;;;;;5.63;5.00;;;16.40;76.50;;;;;;2263114;62;30177;-69
2022/01/18 18:35:59;;;;;;;5.93;5.32;;;16.50;76.40;;;;;;2269515;62;30381;-67
2022/01/18 18:38:31;;;;;;;6.05;4.80;;;16.50;76.30;;;;;;2276383;62;30689;-71
2022/01/18 18:41:02;;;;;;;6.57;5.30;;;16.50;76.40;;;;;;2270953;62;30689;-76
2022/01/18 18:43:37;;;;;;;5.38;4.50;;;16.50;76.20;;;;;;2285041;62;30185;-77
2022/01/18 18:46:05;;;;;;;5.78;4.53;;;16.60;76.10;;;;;;2283789;62;30120;-73
2022/01/18 18:48:32;;;;;;;5.55;4.07;;;16.70;75.90;;;;;;2285011;62;30250;-70
2022/01/18 18:50:59;;;;;;;4.38;3.42;;;16.80;76.50;;;;;;2284690;62;30618;-73
2022/01/18 18:53:25;;;;;;;4.35;3.67;;;16.90;75.60;;;;;;2284087;62;30298;-73
2022/01/18 18:55:51;;;;;;;4.97;3.20;;;17.00;75.40;;;;;;2277701;62;30526;-72
2022/01/18 19:01:05;;;;;;;5.95;3.42;;;17.20;75.10;;;;;;2284653;62;30266;-70
2022/01/18 19:03:34;;;;;;;3.35;3.15;;;17.20;74.90;;;;;;2284302;62;30422;-71
2022/01/18 19:06:01;;;;;;;4.07;3.40;;;17.30;74.70;;;;;;2284638;62;30229;-71
2022/01/18 19:08:28;;;;;;;3.30;2.95;;;17.30;74.50;;;;;;2284712;62;31184;-70
2022/01/18 19:10:54;;;;;;;4.45;3.05;;;17.40;74.40;;;;;;2284217;62;30440;-71
2022/01/18 19:13:20;;;;;;;4.90;3.08;;;17.40;74.20;;;;;;2277287;62;30256;-71
2022/01/18 19:15:51;;;;;;;3.30;2.80;;;17.40;74.00;;;;;;2277393;62;30309;-70
2022/01/18 19:18:18;;;;;;;4.15;3.00;;;17.50;73.80;;;;;;2284175;62;30984;-70
2022/01/18 19:20:50;;;;;;;4.50;2.90;;;17.50;73.80;;;;;;2277072;62;30178;-70
2022/01/18 19:23:19;;;;;;;4.25;2.70;;;17.50;73.60;;;;;;2277358;62;30500;-70
2022/01/18 19:25:49;;;;;;;3.40;3.10;;;17.60;73.50;;;;;;2284306;62;30135;-71
2022/01/18 19:28:15;;;;;;;3.05;2.75;;;17.60;73.40;;;;;;2277155;62;31044;-71
2022/01/18 19:30:43;;;;;;;3.03;2.70;;;17.60;73.40;;;;;;2277459;62;30502;-71
2022/01/18 19:33:09;;;;;;;3.28;2.97;;;17.60;73.20;;;;;;2284803;62;30030;-72
2022/01/18 19:35:35;;;;;;;3.05;2.80;;;17.60;73.20;;;;;;2284570;62;30275;-72
2022/01/18 19:38:01;;;;;;;3.47;3.00;;;17.70;73.10;;;;;;2284065;62;30887;-71
2022/01/18 19:40:27;;;;;;;3.03;2.75;;;17.70;73.00;;;;;;2284129;62;30313;-71
2022/01/18 19:42:53;;;;;;;2.85;2.65;;;17.70;73.00;;;;;;2284421;62;30142;-70
2022/01/18 19:45:22;;;;;;;3.10;2.80;;;17.70;72.80;;;;;;2284613;62;30030;-70
2022/01/18 19:47:48;;;;;;;3.28;2.95;;;17.70;72.80;;;;;;2277158;62;30346;-70
2022/01/18 19:50:25;;;;;;;2.85;2.65;;;17.70;72.60;;;;;;2277062;62;30586;-71
2022/01/18 19:52:52;;;;;;;4.35;3.00;;;17.70;72.50;;;;;;2277315;62;30304;-71
2022/01/18 19:55:18;;;;;;;3.05;2.72;;;17.80;72.60;;;;;;2284417;62;30173;-71
2022/01/18 19:57:44;;;;;;;2.88;2.67;;;17.80;72.40;;;;;;2276821;62;30545;-70
2022/01/18 20:00:15;;;;;;;3.00;2.80;;;17.80;72.40;;;;;;2284529;62;30145;-70
2022/01/18 20:02:41;;;;;;;3.33;3.03;;;17.80;72.30;;;;;;2284463;62;30322;-70
2022/01/18 20:05:07;;;;;;;3.50;3.20;;;17.80;72.20;;;;;;2277165;62;30040;-70
2022/01/18 20:07:34;;;;;;;3.30;3.08;;;17.80;72.20;;;;;;2284560;62;30287;-69
2022/01/18 20:10:00;;;;;;;3.38;3.08;;;17.80;72.10;;;;;;2284321;62;30213;-70
2022/01/18 20:12:26;;;;;;;3.88;3.00;;;17.80;72.10;;;;;;2270392;62;29986;-71
2022/01/18 20:14:52;;;;;;;3.72;3.42;;;17.80;72.00;;;;;;2284604;62;30332;-72
2022/01/18 20:17:19;;;;;;;4.22;3.05;;;17.80;71.90;;;;;;2276830;62;30196;-70
2022/01/18 20:19:45;;;;;;;3.20;2.90;;;17.80;71.90;;;;;;2284440;62;30211;-69
2022/01/18 20:22:12;;;;;;;4.43;3.42;;;17.80;71.80;;;;;;2276637;62;30148;-69
2022/01/18 20:24:39;;;;;;;4.60;3.30;;;17.80;71.80;;;;;;2278969;62;30386;-69
2022/01/18 20:27:13;;;;;;;4.57;3.40;;;17.70;71.70;;;;;;2268714;62;30986;-69
2022/01/18 20:29:40;;;;;;;4.30;3.05;;;17.70;71.70;;;;;;2276132;62;30106;-69
2022/01/18 20:32:10;;;;;;;3.50;3.20;;;17.70;71.80;;;;;;2268692;62;30295;-70
2022/01/18 20:34:36;;;;;;;5.25;3.78;;;17.60;71.80;;;;;;2268906;62;30329;-69
2022/01/18 20:37:02;;;;;;;5.47;3.67;;;17.60;71.90;;;;;;2276012;62;31135;-70
2022/01/18 20:39:31;;;;;;;5.10;3.60;;;17.60;72.00;;;;;;2275890;62;31696;-71
2022/01/18 20:44:43;;;;;;;3.95;3.58;;;17.50;72.10;;;;;;2275887;62;30217;-70
2022/01/18 20:47:09;;;;;;;4.38;3.42;;;17.50;72.10;;;;;;2262111;62;30046;-70
2022/01/18 20:49:35;;;;;;;4.18;3.67;;;17.50;72.20;;;;;;2276173;62;30755;-70
2022/01/18 20:52:01;;;;;;;4.63;3.80;;;17.40;72.20;;;;;;2268411;62;30386;-70
2022/01/18 20:54:27;;;;;;;5.30;4.25;;;17.40;72.30;;;;;;2276065;62;30112;-70
2022/01/18 20:56:53;;;;;;;4.72;4.05;;;17.40;73.00;;;;;;2276007;62;30529;-70
2022/01/18 20:59:19;;;;;;;7.05;4.45;;;17.40;72.30;;;;;;2275666;62;30515;-69
2022/01/18 21:01:46;;;;;;;4.95;4.28;;;17.30;72.40;;;;;;2276029;62;30109;-70
2022/01/18 21:04:12;;;;;;;5.50;4.28;;;17.30;72.40;;;;;;2268446;62;30210;-70
2022/01/18 21:06:38;;;;;;;6.43;4.40;;;17.30;72.50;;;;;;2275768;62;32513;-73
2022/01/18 21:09:05;;;;;;;7.30;4.30;;;17.20;72.40;;;;;;2275471;62;30561;-73
2022/01/18 21:11:31;;;;;;;4.55;4.15;;;17.20;72.50;;;;;;2269859;62;30132;-73
2022/01/18 21:14:02;;;;;;;6.68;4.25;;;17.20;72.50;;;;;;2277014;62;30109;-71
2022/01/18 21:16:28;;;;;;;5.38;4.50;;;17.20;72.50;;;;;;2277290;62;30845;-69
2022/01/18 21:18:54;;;;;;;5.35;4.28;;;17.10;72.50;;;;;;2277311;62;30176;-69
2022/01/18 21:21:20;;;;;;;4.85;4.35;;;17.20;72.60;;;;;;2277104;62;30149;-70
2022/01/18 21:23:45;;;;;;;5.53;4.70;;;17.20;72.60;;;;;;2277101;62;30285;-72
2022/01/18 21:26:11;;;;;;;5.28;4.25;;;17.10;72.60;;;;;;2277184;62;30210;-72
2022/01/18 21:28:37;;;;;;;5.85;5.22;;;17.10;72.60;;;;;;2280571;62;31636;-72
2022/01/18 21:31:03;;;;;;;5.53;4.70;;;17.10;72.60;;;;;;2276641;62;30017;-69
2022/01/18 21:33:31;;;;;;;5.93;4.90;;;17.10;72.60;;;;;;2277016;62;30098;-69
2022/01/18 21:35:56;;;;;;;5.95;4.60;;;17.10;72.60;;;;;;2277034;62;30407;-69
2022/01/18 21:38:22;;;;;;;18.85;6.00;;;17.10;72.70;;;;;;2279478;62;31069;-70
2022/01/18 21:40:48;;;;;;;6.57;5.50;;;17.10;72.70;;;;;;2281733;62;30274;-69
2022/01/18 21:43:14;;;;;;;7.05;5.20;;;17.20;72.60;;;;;;2283563;62;30202;-70
2022/01/18 21:45:43;;;;;;;5.63;5.05;;;17.20;72.50;;;;;;2283721;62;31178;-71
2022/01/18 21:48:09;;;;;;;7.35;4.95;;;17.30;72.50;;;;;;2272411;62;30140;-70
2022/01/18 21:50:35;;;;;;;5.82;4.78;;;17.30;72.30;;;;;;2284169;62;30169;-70
2022/01/18 21:53:01;;;;;;;5.75;5.03;;;17.30;72.30;;;;;;2284148;62;30766;-70
2022/01/18 21:55:26;;;;;;;6.60;5.13;;;17.30;72.20;;;;;;2281188;62;36499;-70
2022/01/18 21:57:52;;;;;;;6.75;4.75;;;17.40;72.20;;;;;;2275639;62;30205;-70
2022/01/18 22:00:19;;;;;;;7.10;4.82;;;17.40;72.20;;;;;;2272758;62;30686;-71
2022/01/18 22:02:45;;;;;;;5.20;4.55;;;17.40;72.10;;;;;;2276596;62;30322;-71
2022/01/18 22:05:12;;;;;;;6.82;5.63;;;17.40;72.10;;;;;;2284000;62;30204;-71
2022/01/18 22:07:41;;;;;;;7.85;5.68;;;17.40;72.10;;;;;;2283496;62;30741;-70
2022/01/18 22:10:08;;;;;;;7.50;5.40;;;17.30;71.90;;;;;;2268498;62;30557;-71
2022/01/18 22:12:37;;;;;;;6.82;5.75;;;17.30;72.10;;;;;;2268377;62;30187;-70
2022/01/18 22:15:05;;;;;;;8.43;6.35;;;17.30;72.30;;;;;;2275817;62;30964;-70
2022/01/18 22:17:31;;;;;;;6.13;5.25;;;17.20;72.20;;;;;;2275575;62;30295;-71
2022/01/18 22:19:58;;;;;;;5.95;4.93;;;17.20;72.20;;;;;;2280764;62;30302;-70
2022/01/18 22:22:24;;;;;;;5.90;4.70;;;17.30;72.30;;;;;;2284046;62;30299;-72
2022/01/18 22:24:50;;;;;;;8.10;5.30;;;17.30;72.30;;;;;;2283709;62;30190;-72
2022/01/18 22:27:16;;;;;;;5.82;4.75;;;17.30;72.20;;;;;;2284122;62;30204;-72
2022/01/18 22:29:42;;;;;;;6.15;4.93;;;17.30;72.20;;;;;;2280674;62;30118;-71
2022/01/18 22:32:08;;;;;;;6.55;4.70;;;17.30;72.20;;;;;;2275647;62;30266;-71
2022/01/18 22:34:35;;;;;;;5.95;5.00;;;17.30;72.10;;;;;;2275796;62;31366;-71
2022/01/18 22:37:01;;;;;;;8.13;4.93;;;17.30;72.10;;;;;;2275589;62;30525;-71
2022/01/18 22:39:27;;;;;;;5.60;4.20;;;17.30;72.10;;;;;;2275592;62;30185;-71
2022/01/18 22:41:56;;;;;;;5.40;4.22;;;17.30;72.10;;;;;;2275738;62;30173;-71
2022/01/18 22:44:23;;;;;;;6.57;4.60;;;17.30;72.00;;;;;;2278029;62;30087;-69
2022/01/18 22:46:49;;;;;;;6.32;4.72;;;17.30;72.00;;;;;;2283736;62;30622;-70
2022/01/18 22:49:15;;;;;;;5.30;4.20;;;17.30;72.00;;;;;;2283902;62;30397;-70
2022/01/18 22:51:41;;;;;;;5.68;4.25;;;17.30;71.90;;;;;;2283742;62;30064;-70
2022/01/18 22:54:07;;;;;;;7.50;4.50;;;17.30;72.00;;;;;;2276276;62;30745;-70
2022/01/18 22:56:33;;;;;;;4.75;4.20;;;17.40;72.00;;;;;;2283492;62;30188;-71
2022/01/18 22:58:58;;;;;;;6.95;4.85;;;17.40;71.90;;;;;;2283298;62;30982;-72
2022/01/18 23:01:24;;;;;;;6.97;6.10;;;17.30;72.00;;;;;;2283979;62;30590;-73
2022/01/18 23:03:50;;;;;;;6.63;5.00;;;17.20;71.70;;;;;;2283424;62;30206;-73
2022/01/18 23:06:16;;;;;;;4.88;4.38;;;17.10;71.90;;;;;;2282994;62;30497;-73
2022/01/18 23:08:42;;;;;;;5.65;4.45;;;17.10;72.00;;;;;;2283535;62;30536;-73
2022/01/18 23:11:08;;;;;;;6.40;4.65;;;17.00;72.00;;;;;;2283777;62;30252;-75
2022/01/18 23:13:35;;;;;;;5.80;4.80;;;16.90;72.00;;;;;;2283824;62;30791;-71
2022/01/18 23:16:01;;;;;;;10.73;5.18;;;16.90;72.00;;;;;;2283865;62;30010;-74
2022/01/18 23:18:27;;;;;;;12.48;5.65;;;16.80;72.00;;;;;;2280258;62;30439;-76
2022/01/18 23:20:53;;;;;;;5.70;5.10;;;16.80;73.00;;;;;;2269026;62;30254;-70
2022/01/18 23:23:20;;;;;;;8.07;4.85;;;16.80;72.10;;;;;;2268642;62;31219;-70
